1886 Cyclonic Storm NOT_NAMED (1886166N20089)


IBTrACS version v04r00. Visit IBTrACS website for data access.
Please direct all questions to the IBTrACS Q and A forum

Storm track - Intensity - Wind Radii - Intensity Data - Source Data - All data

Summary Information

Storm ID 1886166N20089
Start Jun 15 00Z
Landfall Jun 16 12Z
Max Intensity 45 kt (Jun 15 03Z)
End Jun 22 03Z
ATCF IDs
Track status Best track data.

Storm track plot

Map of storm track

Intensity plots

Map of storm track

Radial wind information

No radial wind information for this storm


Position and Intensity Table

BASIN ISO_TIME_________ NATURE LAT LON DS824 WIND
degrees north degrees east kts
NI 1886-06-15 00:00:00 TS 19.60 88.80 45
NI 03:00:00 TS 19.60 88.80 45
NI 06:00:00 TS 19.62 88.79 45
NI 09:00:00 TS 19.63 88.79 45
NI 12:00:00 TS 19.63 88.79 45
NI 15:00:00 TS 19.60 88.80 45
NI 18:00:00 TS 19.55 88.83 45
NI 21:00:00 TS 19.48 88.87 45
NI 1886-06-16 00:00:00 TS 19.51 88.85 45
NI 03:00:00 TS 19.77 88.70 45
NI 06:00:00 TS 20.29 88.46 45
NI 09:00:00 TS 20.98 88.13 45
NI 12:00:00 TS 21.69 87.73 45
NI 15:00:00 TS 22.24 87.27 41
NI 18:00:00 TS 22.62 86.72 37
NI 21:00:00 TS 22.95 86.06 33
NI 1886-06-17 00:00:00 TS 23.19 85.46 30
NI 03:00:00 TS 23.36 85.07 30
NI 06:00:00 TS 23.48 84.84 30
NI 09:00:00 TS 23.58 84.62 30
NI 12:00:00 TS 23.67 84.39 30
NI 15:00:00 TS 23.75 84.15 30
NI 18:00:00 TS 23.85 83.87 30
NI 21:00:00 TS 23.94 83.59 30
NI 1886-06-18 00:00:00 TS 24.05 83.28 30
NI 03:00:00 TS 24.18 82.89 30
NI 06:00:00 TS 24.31 82.44 30
NI 09:00:00 TS 24.43 81.99 30
NI 12:00:00 TS 24.54 81.53 30
NI 15:00:00 TS 24.65 81.10 30
NI 18:00:00 TS 24.74 80.73 30
NI 21:00:00 TS 24.84 80.39 30
NI 1886-06-19 00:00:00 TS 25.00 79.96 30
NI 03:00:00 TS 25.25 79.28 30
NI 06:00:00 TS 25.59 78.41 30
NI 09:00:00 TS 25.99 77.54 30
NI 12:00:00 TS 26.45 76.71 30
NI 15:00:00 TS 26.96 75.97 30
NI 18:00:00 TS 27.56 75.37 30
NI 21:00:00 TS 28.26 74.86 30
NI 1886-06-20 00:00:00 TS 28.92 74.47 30
NI 03:00:00 TS 29.38 74.20 30
NI 06:00:00 TS 29.70 74.03 30
NI 09:00:00 TS 30.00 73.91 30
NI 12:00:00 TS 30.28 73.82 30
NI 15:00:00 TS 30.55 73.75 30
NI 18:00:00 TS 30.85 73.66 30
NI 21:00:00 TS 31.14 73.59 30
NI 1886-06-21 00:00:00 TS 31.44 73.53 30
NI 03:00:00 TS 31.77 73.45 30
NI 06:00:00 TS 32.12 73.36 30
NI 09:00:00 TS 32.48 73.29 30
NI 12:00:00 TS 32.82 73.23 30
NI 15:00:00 TS 33.15 73.17 30
NI 18:00:00 TS 33.45 73.13 30
NI 21:00:00 TS 33.77 73.11 30
NI 1886-06-22 00:00:00 TS 34.09 73.11 30
NI 03:00:00 NR 34.30 73.10

Source Information

Agency Information
USA
TOKYO
CMA
HKO
NEWDELHI
REUNION
BOM
NADI
WELLINGTON
DS824 n_ind.dat:98:NOT NAMED
TD9636 cons_worldwide_trop_cyclone_18710101-19891231-004:Line=928
TD9635
NEUMANN
MLC

All available IBTrACS Data

SEASON BASIN SUBBASIN ISO_TIME_________ NATURE LAT LON DIST2LAND LANDFALL IFLAG USA SSHS DS824 LAT DS824 LON DS824 STAGE DS824 WIND TD9636 LAT TD9636 LON TD9636 STAGE STORM SPEED STORM DIR
Year degrees north degrees east km km 1 degrees north degrees east kts degrees north degrees east kts degrees
1886 NI BB 1886-06-15 00:00:00 TS 19.60 88.80 223 223 _________O____ -1 19.60 88.80 TC 45 0 0
1886 NI BB 03:00:00 TS 19.60 88.80 223 223 _________PO___ -1 19.60 88.80 TC 45 19.60 88.80 3 0 0
1886 NI BB 06:00:00 TS 19.62 88.79 223 223 _________OP___ -1 19.60 88.80 TC 45 19.64 88.78 3 0 0
1886 NI BB 09:00:00 TS 19.63 88.79 223 223 _________PP___ -1 19.60 88.80 TC 45 19.66 88.77 3 0 0
1886 NI BB 12:00:00 TS 19.63 88.79 223 223 _________OP___ -1 19.60 88.80 TC 45 19.65 88.77 3 0 0
1886 NI BB 15:00:00 TS 19.60 88.80 223 223 _________PO___ -1 19.60 88.80 TC 45 19.60 88.80 3 1 148
1886 NI BB 18:00:00 TS 19.55 88.83 223 223 _________OP___ -1 19.60 88.80 TC 45 19.50 88.85 3 1 150
1886 NI BB 21:00:00 TS 19.48 88.87 234 234 _________PP___ -1 19.53 88.84 TC 45 19.42 88.90 3 0 162
1886 NI BB 1886-06-16 00:00:00 TS 19.51 88.85 230 209 _________OP___ -1 19.60 88.80 TC 45 19.43 88.89 3 3 332
1886 NI BB 03:00:00 TS 19.77 88.70 202 145 _________PO___ -1 19.94 88.61 TC 45 19.60 88.80 3 9 335
1886 NI BB 06:00:00 TS 20.29 88.46 145 78 _________OP___ -1 20.50 88.30 TC 45 20.07 88.61 3 13 336
1886 NI BB 09:00:00 TS 20.98 88.13 67 0 _________PP___ -1 21.26 87.94 TC 45 20.70 88.32 3 16 334
1886 NI BB 12:00:00 TS 21.69 87.73 0 0 _________OP___ -1 22.00 87.50 TC 45 21.38 87.95 3 15 328
1886 NI BB 15:00:00 TS 22.24 87.27 0 0 _________PO___ -1 22.47 87.04 TC 41 22.00 87.50 3 13 315
1886 NI BB 18:00:00 TS 22.62 86.72 0 0 _________OP___ -1 22.80 86.50 TC 37 22.44 86.94 3 13 303
1886 NI BB 21:00:00 TS 22.95 86.06 0 0 _________PP___ -1 23.10 85.81 TC 33 22.80 86.32 3 13 296
1886 NI BB 1886-06-17 00:00:00 TS 23.19 85.46 0 0 _________OP___ -1 23.30 85.20 TC 30 23.09 85.72 3 10 294
1886 NI BB 03:00:00 TS 23.36 85.07 0 0 _________PO___ -1 23.42 84.94 TC 30 23.30 85.20 1 6 297
1886 NI BB 06:00:00 TS 23.48 84.84 0 0 _________OP___ -1 23.50 84.80 TC 30 23.46 84.88 1 5 298
1886 NI BB 09:00:00 TS 23.58 84.62 0 0 _________PP___ -1 23.60 84.56 TC 30 23.57 84.67 1 5 294
1886 NI BB 12:00:00 TS 23.67 84.39 0 0 _________OP___ -1 23.70 84.30 TC 30 23.64 84.49 1 5 292
1886 NI BB 15:00:00 TS 23.75 84.15 0 0 _________PO___ -1 23.80 84.01 TC 30 23.70 84.30 1 5 291
1886 NI BB 18:00:00 TS 23.85 83.87 0 0 _________OP___ -1 23.90 83.70 TC 30 23.80 84.05 1 5 291
1886 NI BB 21:00:00 TS 23.94 83.59 0 0 _________PP___ -1 23.99 83.42 TC 30 23.89 83.77 1 6 290
1886 NI BB 1886-06-18 00:00:00 TS 24.05 83.28 0 0 _________OP___ -1 24.10 83.10 TC 30 23.99 83.45 1 7 290
1886 NI BB 03:00:00 TS 24.18 82.89 0 0 _________PO___ -1 24.25 82.67 TC 30 24.10 83.10 1 8 289
1886 NI BB 06:00:00 TS 24.31 82.44 0 0 _________OP___ -1 24.40 82.20 TC 30 24.22 82.69 1 9 287
1886 NI BB 09:00:00 TS 24.43 81.99 0 0 _________PP___ -1 24.51 81.74 TC 30 24.34 82.23 1 9 285
1886 NI BB 12:00:00 TS 24.54 81.53 0 0 _________OP___ -1 24.60 81.30 TC 30 24.47 81.76 1 8 285
1886 NI BB 15:00:00 TS 24.65 81.10 0 0 _________PO___ -1 24.69 80.89 TC 30 24.60 81.30 1 8 286
1886 NI BB 18:00:00 TS 24.74 80.73 0 0 _________OP___ -1 24.80 80.50 TC 30 24.68 80.96 1 7 287
1886 NI BB 21:00:00 TS 24.84 80.39 0 0 _________PP___ -1 24.91 80.17 TC 30 24.76 80.62 1 7 290
1886 NI BB 1886-06-19 00:00:00 TS 25.00 79.96 0 0 _________OP___ -1 25.10 79.70 TC 30 24.89 80.22 1 11 292
1886 NI BB 03:00:00 TS 25.25 79.28 0 0 _________PO___ -1 25.41 78.86 TC 30 25.10 79.70 1 15 293
1886 NI BB 06:00:00 TS 25.59 78.41 0 0 _________OP___ -1 25.80 77.90 TC 30 25.39 78.92 1 17 295
1886 NI AS 09:00:00 TS 25.99 77.54 0 0 _________PP___ -1 26.22 77.05 TC 30 25.76 78.03 1 18 299
1886 NI AS 12:00:00 TS 26.45 76.71 0 0 _________OP___ -1 26.70 76.30 TC 30 26.19 77.12 1 17 305
1886 NI AS 15:00:00 TS 26.96 75.97 0 0 _________PO___ -1 27.21 75.64 TC 30 26.70 76.30 1 16 313
1886 NI AS 18:00:00 TS 27.56 75.37 0 0 _________OP___ -1 27.80 75.10 TC 30 27.31 75.64 1 16 323
1886 NI AS 21:00:00 TS 28.26 74.86 0 0 _________PP___ -1 28.54 74.63 TC 30 27.98 75.09 1 16 330
1886 NI AS 1886-06-20 00:00:00 TS 28.92 74.47 0 0 _________OP___ -1 29.20 74.30 TC 30 28.63 74.64 1 13 333
1886 NI AS 03:00:00 TS 29.38 74.20 0 0 _________PO___ -1 29.56 74.10 TC 30 29.20 74.30 1 9 334
1886 NI AS 06:00:00 TS 29.70 74.03 0 0 _________OP___ -1 29.80 74.00 TC 30 29.59 74.06 1 7 337
1886 NI AS 09:00:00 TS 30.00 73.91 0 0 _________PP___ -1 30.10 73.89 TC 30 29.90 73.92 1 6 343
1886 NI AS 12:00:00 TS 30.28 73.82 0 0 _________OP___ -1 30.40 73.80 TC 30 30.15 73.85 1 6 346
1886 NI AS 15:00:00 TS 30.55 73.75 0 0 _________PO___ -1 30.70 73.69 TC 30 30.40 73.80 1 6 346
1886 NI AS 18:00:00 TS 30.85 73.66 0 0 _________OP___ -1 31.00 73.60 TC 30 30.69 73.71 1 6 348
1886 NI AS 21:00:00 TS 31.14 73.59 0 0 _________PP___ -1 31.29 73.55 TC 30 30.98 73.63 1 6 350
1886 NI AS 1886-06-21 00:00:00 TS 31.44 73.53 0 0 _________OP___ -1 31.60 73.50 TC 30 31.29 73.57 1 6 349
1886 NI AS 03:00:00 TS 31.77 73.45 0 0 _________PO___ -1 31.94 73.40 TC 30 31.60 73.50 1 7 348
1886 NI AS 06:00:00 TS 32.12 73.36 0 0 _________OP___ -1 32.30 73.30 TC 30 31.94 73.42 1 7 349
1886 NI AS 09:00:00 TS 32.48 73.29 0 0 _________PP___ -1 32.66 73.24 TC 30 32.29 73.34 1 7 352
1886 NI AS 12:00:00 TS 32.82 73.23 0 0 _________OP___ -1 33.00 73.20 TC 30 32.65 73.26 1 7 352
1886 NI AS 15:00:00 TS 33.15 73.17 0 0 _________PO___ -1 33.30 73.14 TC 30 33.00 73.20 1 6 353
1886 NI AS 18:00:00 TS 33.45 73.13 0 0 _________OP___ -1 33.60 73.10 TC 30 33.34 73.16 1 6 356
1886 NI AS 21:00:00 TS 33.77 73.11 0 0 _________PP___ -1 33.94 73.09 TC 30 33.66 73.13 1 6 0
1886 NI AS 1886-06-22 00:00:00 TS 34.09 73.11 0 0 _________OP___ -1 34.30 73.10 TC 30 33.98 73.11 1 5 358
1886 NI AS 03:00:00 NR 34.30 73.10 0 __________O___ -1 TC 34.30 73.10 1 4 0